Time;durP1;ratioP1;P1;durP2;ratioP2;P2;SDS_P1;SDS_P2;PMS_P1;PMS_P2;Temp;Humidity;BMP_temperature;BMP_pressure;BME280_temperature;BME280_humidity;BME280_pressure;Samples;Min_cycle;Max_cycle;Signal;HPM_P1;HPM_P2
2023/07/15 00:00:46;;;;;;;6.83;2.50;;;22.90;99.90;;;;;;5062313;28;20419;-74
2023/07/15 00:03:14;;;;;;;7.15;2.42;;;22.80;99.90;;;;;;5050367;28;20572;-73
2023/07/15 00:05:40;;;;;;;8.60;2.70;;;22.80;99.90;;;;;;5062228;28;20417;-73
2023/07/15 00:08:06;;;;;;;6.85;2.50;;;22.80;99.90;;;;;;5038708;28;20494;-73
2023/07/15 00:10:36;;;;;;;7.70;2.40;;;22.80;99.90;;;;;;5048757;28;20461;-73
2023/07/15 00:13:03;;;;;;;7.97;2.88;;;22.80;99.90;;;;;;5049053;28;20413;-74
2023/07/15 00:15:28;;;;;;;6.80;2.40;;;22.70;99.90;;;;;;5045357;28;20405;-74
2023/07/15 00:17:54;;;;;;;7.03;2.50;;;22.60;99.90;;;;;;5050279;28;20393;-74
2023/07/15 00:20:20;;;;;;;6.90;2.72;;;22.50;99.90;;;;;;5051070;28;20424;-74
2023/07/15 00:22:49;;;;;;;8.07;2.67;;;22.40;99.90;;;;;;5031192;28;20392;-74
2023/07/15 00:25:18;;;;;;;7.20;2.88;;;22.30;99.90;;;;;;5030282;28;20891;-74
2023/07/15 00:27:44;;;;;;;6.90;2.78;;;22.30;99.90;;;;;;5030761;28;20449;-74
2023/07/15 00:30:15;;;;;;;7.95;2.30;;;22.40;99.90;;;;;;5031096;28;20437;-74
2023/07/15 00:32:46;;;;;;;8.30;2.90;;;22.30;99.90;;;;;;5032123;28;20383;-74
2023/07/15 00:35:32;;;;;;;7.18;2.97;;;22.40;99.90;;;;;;5050794;28;20467;-74
2023/07/15 00:37:59;;;;;;;6.47;2.50;;;22.40;99.90;;;;;;5050878;28;20398;-74
2023/07/15 00:40:26;;;;;;;8.93;3.10;;;22.30;99.90;;;;;;5050924;28;20417;-72
2023/07/15 00:43:30;;;;;;;7.80;2.93;;;22.10;99.90;;;;;;5050714;28;20385;-72
2023/07/15 00:46:18;;;;;;;9.05;2.85;;;22.10;99.90;;;;;;5050757;28;20389;-74
2023/07/15 00:49:05;;;;;;;7.57;2.63;;;22.00;99.90;;;;;;5064728;28;20399;-74
2023/07/15 00:51:35;;;;;;;6.43;2.40;;;22.00;1.00;;;;;;5029666;28;20461;-74
2023/07/15 00:54:03;;;;;;;8.90;3.30;;;21.90;1.00;;;;;;5035456;28;20948;-74
2023/07/15 00:56:31;;;;;;;7.47;3.03;;;21.80;1.00;;;;;;5053471;28;20408;-74
2023/07/15 00:58:57;;;;;;;6.70;2.57;;;21.80;1.00;;;;;;5041612;28;20540;-74
2023/07/15 01:01:23;;;;;;;6.72;2.42;;;21.80;1.00;;;;;;5054005;28;20393;-74
2023/07/15 01:03:48;;;;;;;7.97;2.85;;;21.90;1.00;;;;;;5044102;28;20516;-74
2023/07/15 01:06:14;;;;;;;7.27;2.53;;;22.00;1.00;;;;;;5067260;28;20462;-73
2023/07/15 01:08:40;;;;;;;7.07;2.63;;;22.00;1.00;;;;;;5056950;28;20397;-74
2023/07/15 01:11:10;;;;;;;7.03;2.73;;;22.10;1.00;;;;;;5063139;28;20417;-73
2023/07/15 01:13:36;;;;;;;6.80;2.63;;;22.20;1.00;;;;;;5049254;28;20579;-74
2023/07/15 01:16:01;;;;;;;6.77;2.60;;;22.10;1.00;;;;;;5050214;28;20895;-73
2023/07/15 01:18:28;;;;;;;6.63;2.40;;;22.10;1.00;;;;;;5050433;28;20425;-73
2023/07/15 01:20:58;;;;;;;6.55;2.63;;;22.10;1.00;;;;;;5050432;28;20767;-73
2023/07/15 01:23:27;;;;;;;6.63;2.70;;;22.10;1.00;;;;;;5050256;28;20389;-73
2023/07/15 01:25:54;;;;;;;7.50;2.67;;;22.10;1.00;;;;;;5049953;28;20386;-73
2023/07/15 01:28:20;;;;;;;7.35;3.00;;;22.00;1.00;;;;;;5050296;28;20540;-73
2023/07/15 01:30:45;;;;;;;9.80;2.80;;;21.90;1.00;;;;;;5050587;28;20417;-74
2023/07/15 01:33:15;;;;;;;10.47;2.60;;;21.90;1.00;;;;;;5050487;28;20399;-73
2023/07/15 01:35:45;;;;;;;7.33;2.83;;;21.80;1.00;;;;;;5050705;28;20389;-73
2023/07/15 01:38:13;;;;;;;7.45;2.95;;;21.80;1.00;;;;;;5050253;28;20408;-73
2023/07/15 01:40:38;;;;;;;6.90;2.50;;;21.70;1.00;;;;;;5050042;28;20920;-73
2023/07/15 01:43:04;;;;;;;6.90;2.70;;;21.60;1.00;;;;;;5032088;28;20397;-74
2023/07/15 01:45:30;;;;;;;8.70;2.25;;;21.60;1.00;;;;;;5050222;28;20433;-73
2023/07/15 01:47:56;;;;;;;7.30;2.30;;;21.50;1.00;;;;;;5050870;28;20398;-73
2023/07/15 01:50:21;;;;;;;6.53;2.50;;;21.60;1.00;;;;;;5062879;28;20407;-74
2023/07/15 01:52:47;;;;;;;7.43;2.90;;;21.60;17.50;;;;;;5053471;28;20429;-74
2023/07/15 01:55:12;;;;;;;8.80;3.00;;;21.20;99.90;;;;;;5048617;28;20416;-74
2023/07/15 01:57:38;;;;;;;9.00;3.10;;;21.10;99.90;;;;;;5070010;28;20977;-73
2023/07/15 02:00:08;;;;;;;8.00;2.90;;;21.10;99.90;;;;;;5070732;28;20419;-73
2023/07/15 02:02:34;;;;;;;9.25;3.42;;;21.00;99.90;;;;;;5066969;28;20409;-73
2023/07/15 02:05:00;;;;;;;7.75;3.30;;;20.90;1.00;;;;;;5081209;28;20472;-73
2023/07/15 02:07:25;;;;;;;8.52;3.60;;;20.80;1.00;;;;;;5062001;28;20401;-73
2023/07/15 02:09:51;;;;;;;8.15;3.20;;;20.80;1.00;;;;;;5083172;28;20411;-74
2023/07/15 02:12:16;;;;;;;7.60;2.92;;;20.80;1.00;;;;;;5083162;28;20438;-74
2023/07/15 02:14:43;;;;;;;7.68;3.10;;;20.80;1.00;;;;;;5040080;28;20432;-73
2023/07/15 02:17:08;;;;;;;8.55;3.40;;;20.90;1.00;;;;;;5067310;28;20494;-74
2023/07/15 02:19:34;;;;;;;7.68;3.25;;;21.00;99.90;;;;;;5068522;28;20783;-71
2023/07/15 02:22:00;;;;;;;7.25;2.92;;;21.00;99.90;;;;;;5069092;28;20408;-71
2023/07/15 02:24:26;;;;;;;7.97;3.20;;;21.10;99.90;;;;;;5070331;28;20537;-73
2023/07/15 02:26:52;;;;;;;7.90;2.97;;;21.10;99.90;;;;;;5073095;28;20408;-74
2023/07/15 02:29:17;;;;;;;10.67;3.00;;;21.00;99.90;;;;;;5074481;28;20459;-73
2023/07/15 02:31:44;;;;;;;7.60;3.10;;;21.10;99.90;;;;;;5052364;28;20397;-73
2023/07/15 02:34:10;;;;;;;8.27;3.05;;;21.10;99.90;;;;;;5040624;28;20433;-73
2023/07/15 02:36:36;;;;;;;7.32;3.30;;;21.10;99.90;;;;;;5052383;28;20447;-71
2023/07/15 02:39:02;;;;;;;7.20;2.93;;;21.10;99.90;;;;;;5066790;28;20424;-73
2023/07/15 02:41:28;;;;;;;6.83;3.00;;;21.00;99.90;;;;;;5048741;28;20412;-73
2023/07/15 02:43:54;;;;;;;7.83;3.30;;;21.00;99.90;;;;;;5065162;28;20410;-72
2023/07/15 02:46:19;;;;;;;7.68;2.90;;;20.90;99.90;;;;;;5047785;28;20801;-70
2023/07/15 02:48:45;;;;;;;8.40;3.40;;;20.80;1.00;;;;;;5062618;28;20479;-71
2023/07/15 02:51:10;;;;;;;8.00;3.50;;;20.70;1.00;;;;;;5048880;28;20411;-73
2023/07/15 02:53:36;;;;;;;8.50;3.70;;;20.80;1.00;;;;;;5047280;28;20396;-73
2023/07/15 02:56:01;;;;;;;9.50;3.70;;;20.60;99.90;;;;;;5046089;28;20778;-73
2023/07/15 02:58:27;;;;;;;10.20;4.20;;;20.60;99.90;;;;;;5049864;28;20710;-71
2023/07/15 03:00:52;;;;;;;9.80;3.90;;;20.60;99.90;;;;;;5061155;28;20415;-72
2023/07/15 03:03:19;;;;;;;9.30;3.77;;;20.70;99.90;;;;;;5047822;28;20415;-74
2023/07/15 03:05:48;;;;;;;8.65;3.67;;;20.70;99.90;;;;;;5068093;28;20414;-74
2023/07/15 03:08:14;;;;;;;10.40;3.40;;;20.80;1.00;;;;;;5067614;28;20396;-73
2023/07/15 03:10:43;;;;;;;8.83;4.00;;;20.80;1.00;;;;;;5049786;28;20410;-74
2023/07/15 03:13:08;;;;;;;8.38;3.72;;;20.70;99.90;;;;;;5042072;28;20509;-74
2023/07/15 03:15:35;;;;;;;7.93;3.58;;;20.70;99.90;;;;;;5019460;28;20898;-74
2023/07/15 03:18:02;;;;;;;9.32;3.67;;;20.70;71.20;;;;;;5028392;28;20469;-72
2023/07/15 03:20:28;;;;;;;8.50;3.63;;;20.60;99.90;;;;;;5037873;28;20483;-74
2023/07/15 03:22:54;;;;;;;8.15;3.58;;;20.60;99.90;;;;;;5045232;28;20409;-74
2023/07/15 03:25:20;;;;;;;7.68;3.25;;;20.50;99.90;;;;;;5049432;28;20413;-74
2023/07/15 03:27:46;;;;;;;8.00;3.70;;;20.30;99.90;;;;;;5053027;28;20415;-74
2023/07/15 03:30:12;;;;;;;7.80;3.40;;;20.30;99.90;;;;;;5067146;28;20403;-74
2023/07/15 03:32:39;;;;;;;8.43;4.07;;;20.30;99.90;;;;;;5059297;28;20498;-74
2023/07/15 03:35:08;;;;;;;8.52;3.92;;;20.40;99.90;;;;;;5049927;28;20487;-74
2023/07/15 03:37:34;;;;;;;8.98;3.60;;;20.40;1.00;;;;;;5068464;28;20398;-74
2023/07/15 03:40:00;;;;;;;7.60;3.35;;;20.40;1.00;;;;;;5059434;28;20487;-74
2023/07/15 03:42:27;;;;;;;9.10;4.10;;;20.40;99.90;;;;;;5048155;28;20382;-74
2023/07/15 03:44:53;;;;;;;9.07;4.00;;;20.40;87.20;;;;;;5048801;28;20401;-73
2023/07/15 03:47:22;;;;;;;7.95;3.60;;;20.40;99.90;;;;;;5057138;28;20407;-73
2023/07/15 03:49:48;;;;;;;8.53;3.80;;;20.40;96.10;;;;;;5065707;28;20413;-73
2023/07/15 03:52:13;;;;;;;9.25;3.88;;;20.40;99.90;;;;;;5068042;28;20376;-74
2023/07/15 03:54:39;;;;;;;9.13;4.30;;;20.50;1.00;;;;;;5051865;28;20559;-74
2023/07/15 03:57:04;;;;;;;10.77;4.00;;;20.60;1.00;;;;;;5063132;28;20800;-74
2023/07/15 03:59:31;;;;;;;8.90;3.93;;;20.60;1.00;;;;;;5044713;28;20424;-74
2023/07/15 04:01:56;;;;;;;9.00;3.45;;;20.60;1.00;;;;;;5052206;28;20427;-73
2023/07/15 04:04:22;;;;;;;8.50;3.70;;;20.60;1.00;;;;;;5065994;28;20413;-73
2023/07/15 04:06:49;;;;;;;9.67;4.70;;;20.60;2.50;;;;;;5061813;28;20437;-73
2023/07/15 04:09:16;;;;;;;8.80;3.75;;;20.60;1.00;;;;;;5049994;28;20413;-73
2023/07/15 04:11:43;;;;;;;9.35;3.88;;;20.50;99.90;;;;;;5062797;28;21260;-73
2023/07/15 04:14:09;;;;;;;8.90;3.73;;;20.50;99.90;;;;;;5068930;28;20416;-74
2023/07/15 04:16:35;;;;;;;9.90;3.80;;;20.60;99.90;;;;;;5053842;28;20441;-73
2023/07/15 04:19:01;;;;;;;8.87;3.90;;;20.60;96.70;;;;;;5062309;28;20429;-73
2023/07/15 04:21:26;;;;;;;8.33;3.70;;;20.70;1.00;;;;;;5031036;28;20399;-73
2023/07/15 04:23:52;;;;;;;9.63;3.97;;;20.70;8.10;;;;;;5030121;28;20394;-74
2023/07/15 04:26:24;;;;;;;9.70;3.27;;;20.70;99.90;;;;;;5053540;28;20830;-74
2023/07/15 04:28:51;;;;;;;7.87;3.80;;;20.70;99.90;;;;;;5057421;28;20415;-73
2023/07/15 04:31:17;;;;;;;8.50;3.20;;;20.70;99.90;;;;;;5071017;28;20939;-73
2023/07/15 04:33:46;;;;;;;9.23;3.40;;;20.80;99.90;;;;;;5054853;28;20484;-73
2023/07/15 04:36:12;;;;;;;8.98;3.30;;;20.90;99.90;;;;;;5059976;28;20903;-73
2023/07/15 04:38:38;;;;;;;8.18;2.85;;;21.00;82.70;;;;;;5060985;28;20425;-74
2023/07/15 04:41:03;;;;;;;9.67;3.50;;;21.20;1.00;;;;;;5049174;28;20417;-73
2023/07/15 04:43:29;;;;;;;6.70;2.70;;;21.20;1.00;;;;;;5050404;28;20763;-73
2023/07/15 04:45:54;;;;;;;7.57;3.40;;;21.40;99.90;;;;;;5048652;28;20490;-73
2023/07/15 04:48:20;;;;;;;6.93;2.90;;;21.50;99.90;;;;;;5048599;28;20421;-73
2023/07/15 04:50:46;;;;;;;7.78;2.97;;;21.60;63.80;;;;;;5035755;28;20423;-73
2023/07/15 04:53:11;;;;;;;7.82;3.15;;;21.70;1.00;;;;;;5039941;28;20485;-73
2023/07/15 04:55:37;;;;;;;7.63;2.80;;;21.80;1.00;;;;;;5039365;28;20486;-74
2023/07/15 04:58:03;;;;;;;8.25;2.80;;;21.80;1.00;;;;;;5038946;28;20502;-74
2023/07/15 05:00:29;;;;;;;10.80;3.20;;;22.00;1.00;;;;;;5038154;28;20427;-74
2023/07/15 05:02:54;;;;;;;7.63;2.90;;;22.40;99.90;;;;;;5041214;28;20505;-74
2023/07/15 05:05:20;;;;;;;7.80;3.20;;;23.30;1.00;;;;;;5047564;28;21008;-74
2023/07/15 05:07:48;;;;;;;7.40;3.03;;;24.40;1.00;;;;;;5043400;28;20428;-74
2023/07/15 05:10:14;;;;;;;8.07;3.13;;;25.50;1.00;;;;;;5041048;28;20418;-74
2023/07/15 05:12:39;;;;;;;7.43;3.10;;;26.40;99.90;;;;;;5044704;28;20786;-75
2023/07/15 05:15:06;;;;;;;7.07;2.87;;;27.00;99.90;;;;;;5048265;28;20429;-76
2023/07/15 05:17:32;;;;;;;7.30;2.40;;;27.50;99.90;;;;;;5045267;28;20411;-74
2023/07/15 05:19:57;;;;;;;7.47;2.67;;;28.00;99.90;;;;;;5040851;28;20421;-74
2023/07/15 05:22:23;;;;;;;8.00;3.37;;;28.70;99.90;;;;;;5036201;28;20445;-73
2023/07/15 05:24:49;;;;;;;7.47;2.80;;;29.00;99.90;;;;;;5043180;28;20783;-74
2023/07/15 05:27:14;;;;;;;7.27;2.70;;;29.30;99.90;;;;;;5043537;28;20902;-74
2023/07/15 05:29:40;;;;;;;9.40;3.10;;;29.80;99.90;;;;;;5039831;28;20419;-74
2023/07/15 05:32:07;;;;;;;8.13;3.20;;;30.40;99.90;;;;;;5035183;28;20479;-73
2023/07/15 05:34:32;;;;;;;7.35;2.90;;;30.60;99.90;;;;;;5042573;28;20403;-73
2023/07/15 05:36:58;;;;;;;9.80;2.80;;;30.60;99.90;;;;;;5044544;28;20411;-74
2023/07/15 05:39:23;;;;;;;6.90;2.70;;;30.90;99.90;;;;;;5041911;28;20460;-74
2023/07/15 05:41:49;;;;;;;6.45;2.60;;;31.30;99.90;;;;;;5034397;28;20443;-75
2023/07/15 05:44:15;;;;;;;8.90;2.80;;;31.30;99.90;;;;;;5038680;28;20469;-75
2023/07/15 05:46:40;;;;;;;7.32;2.60;;;31.40;99.90;;;;;;5040491;28;20417;-75
2023/07/15 05:49:06;;;;;;;8.38;2.60;;;31.60;99.90;;;;;;5040760;28;20822;-75
2023/07/15 05:51:32;;;;;;;8.10;2.50;;;31.70;99.90;;;;;;5044168;28;20913;-75
2023/07/15 05:53:57;;;;;;;6.57;2.10;;;32.10;99.90;;;;;;5041132;28;20914;-75
2023/07/15 05:56:23;;;;;;;6.77;2.63;;;32.50;99.90;;;;;;5038358;28;20404;-75
2023/07/15 05:58:51;;;;;;;7.87;2.20;;;32.90;99.90;;;;;;5039499;28;21010;-75
2023/07/15 06:01:16;;;;;;;6.70;2.33;;;33.30;99.90;;;;;;5037523;28;20398;-75
2023/07/15 06:03:42;;;;;;;6.83;2.23;;;33.70;99.90;;;;;;5047942;28;20781;-75
2023/07/15 06:06:07;;;;;;;5.90;1.90;;;34.10;99.90;;;;;;5055733;28;20484;-75
2023/07/15 06:08:33;;;;;;;6.70;2.40;;;34.60;99.90;;;;;;5040077;28;20930;-75
2023/07/15 06:11:00;;;;;;;6.80;2.30;;;34.90;99.90;;;;;;5048071;28;20908;-74
2023/07/15 06:13:26;;;;;;;6.70;2.50;;;35.20;99.90;;;;;;5057934;28;20414;-74
2023/07/15 06:15:52;;;;;;;6.20;2.30;;;36.20;99.90;;;;;;5047061;28;20401;-75
2023/07/15 06:18:18;;;;;;;6.00;1.97;;;36.40;99.90;;;;;;5044312;28;20423;-74
2023/07/15 06:20:47;;;;;;;6.03;2.10;;;35.80;99.90;;;;;;5045044;28;20880;-74
2023/07/15 06:23:13;;;;;;;7.40;2.60;;;35.80;99.90;;;;;;5042078;28;20403;-74
2023/07/15 06:25:39;;;;;;;7.05;2.30;;;35.30;99.90;;;;;;5046176;28;20413;-74
2023/07/15 06:28:05;;;;;;;7.00;2.67;;;34.90;99.90;;;;;;5038046;28;20405;-73
2023/07/15 06:30:30;;;;;;;8.50;2.50;;;35.10;99.90;;;;;;5044373;28;20989;-74
2023/07/15 06:32:56;;;;;;;6.63;2.00;;;35.10;99.90;;;;;;5045661;28;20422;-74
2023/07/15 06:35:21;;;;;;;6.97;2.72;;;35.40;99.90;;;;;;5048316;28;20434;-74
2023/07/15 06:37:50;;;;;;;7.60;2.13;;;35.30;99.90;;;;;;5038896;28;20473;-75
2023/07/15 06:40:20;;;;;;;6.90;2.60;;;35.50;99.90;;;;;;5045929;28;20429;-75
2023/07/15 06:42:46;;;;;;;6.00;2.30;;;35.40;99.90;;;;;;5036736;28;20987;-75
2023/07/15 06:45:12;;;;;;;7.47;2.50;;;35.40;99.90;;;;;;5041455;28;20444;-75
2023/07/15 06:47:38;;;;;;;8.13;2.40;;;35.40;99.90;;;;;;5041600;28;20401;-74
2023/07/15 06:50:04;;;;;;;6.43;2.40;;;35.60;99.90;;;;;;5039577;28;20757;-76
2023/07/15 06:52:30;;;;;;;6.77;2.33;;;35.70;99.90;;;;;;5038100;28;20461;-74
2023/07/15 06:54:56;;;;;;;6.35;2.40;;;35.20;99.90;;;;;;5036230;28;20407;-74
2023/07/15 06:57:22;;;;;;;7.13;2.30;;;35.60;99.90;;;;;;5039065;28;20412;-74
2023/07/15 06:59:47;;;;;;;7.07;2.10;;;36.00;99.90;;;;;;5034773;28;20888;-75
2023/07/15 07:02:14;;;;;;;6.95;2.08;;;36.80;99.90;;;;;;5042233;28;20413;-75
2023/07/15 07:04:39;;;;;;;7.20;2.50;;;37.20;99.90;;;;;;5037948;28;20433;-74
2023/07/15 07:07:05;;;;;;;6.30;2.10;;;36.40;99.90;;;;;;5043019;28;20758;-74
2023/07/15 07:09:31;;;;;;;6.60;2.50;;;37.10;99.90;;;;;;5042479;28;20412;-74
2023/07/15 07:11:56;;;;;;;7.25;2.30;;;37.10;99.90;;;;;;5037815;28;20514;-76
2023/07/15 07:14:22;;;;;;;7.25;2.20;;;37.70;99.90;;;;;;5042316;28;20440;-75
2023/07/15 07:16:47;;;;;;;6.50;2.20;;;38.50;99.90;;;;;;5030298;28;20415;-75
2023/07/15 07:19:13;;;;;;;6.50;2.55;;;38.90;99.90;;;;;;5032270;28;20442;-74
2023/07/15 07:21:39;;;;;;;6.40;2.07;;;38.50;99.90;;;;;;5035726;28;20401;-74
2023/07/15 07:24:05;;;;;;;7.10;2.10;;;38.80;99.90;;;;;;5040739;28;20401;-74
2023/07/15 07:26:30;;;;;;;6.07;2.10;;;38.70;99.90;;;;;;5037678;28;20401;-74
2023/07/15 07:28:56;;;;;;;8.90;2.30;;;39.00;99.90;;;;;;5038048;28;20406;-75
2023/07/15 07:31:22;;;;;;;7.10;2.20;;;39.50;99.90;;;;;;5034721;28;20418;-75
2023/07/15 07:33:48;;;;;;;6.30;2.40;;;40.50;99.90;;;;;;5039458;28;20420;-75
2023/07/15 07:36:13;;;;;;;6.50;1.87;;;40.90;99.90;;;;;;5037716;28;20405;-74
2023/07/15 07:38:39;;;;;;;6.50;2.38;;;40.40;99.90;;;;;;5048594;28;20381;-75
2023/07/15 07:41:11;;;;;;;5.93;2.05;;;40.70;99.90;;;;;;5041787;28;20420;-75
2023/07/15 07:43:37;;;;;;;6.60;2.27;;;39.80;99.90;;;;;;5025045;28;20405;-74
2023/07/15 07:46:05;;;;;;;6.10;2.50;;;39.50;99.90;;;;;;5044599;28;20409;-75
2023/07/15 07:48:31;;;;;;;7.50;2.20;;;38.90;99.90;;;;;;5044045;28;20407;-74
2023/07/15 07:50:57;;;;;;;6.93;2.47;;;38.50;99.90;;;;;;5043055;28;20456;-74
2023/07/15 07:53:23;;;;;;;6.78;2.10;;;37.80;99.90;;;;;;5041410;28;20545;-74
2023/07/15 07:55:50;;;;;;;6.37;2.23;;;37.20;99.90;;;;;;5042682;28;20516;-74
2023/07/15 07:58:16;;;;;;;7.00;2.25;;;37.40;99.90;;;;;;5053461;28;20986;-75
2023/07/15 08:00:41;;;;;;;7.97;2.60;;;37.90;99.90;;;;;;5039264;28;20954;-75
2023/07/15 08:03:07;;;;;;;8.20;2.50;;;37.80;99.90;;;;;;5042729;28;20921;-76
2023/07/15 08:05:32;;;;;;;6.60;2.40;;;38.10;99.90;;;;;;5042466;28;20418;-74
2023/07/15 08:07:58;;;;;;;7.18;2.30;;;37.90;99.90;;;;;;5023878;28;20436;-74
2023/07/15 08:10:23;;;;;;;5.87;1.80;;;37.70;99.90;;;;;;5042912;28;20416;-75
2023/07/15 08:12:49;;;;;;;7.07;2.40;;;36.90;99.90;;;;;;5043418;28;20437;-74
2023/07/15 08:15:14;;;;;;;8.63;2.40;;;36.30;99.90;;;;;;5047553;28;20415;-73
2023/07/15 08:17:41;;;;;;;6.50;2.00;;;36.70;99.90;;;;;;5039622;28;20421;-74
2023/07/15 08:20:08;;;;;;;6.00;1.80;;;37.30;99.90;;;;;;5041715;28;20433;-74
2023/07/15 08:22:34;;;;;;;6.90;2.08;;;36.70;99.90;;;;;;5041037;28;21044;-74
2023/07/15 08:25:00;;;;;;;7.75;2.30;;;36.00;99.90;;;;;;5042499;28;20401;-75
2023/07/15 08:27:25;;;;;;;6.40;2.10;;;35.80;99.90;;;;;;5037585;28;20399;-75
2023/07/15 08:29:51;;;;;;;6.00;1.90;;;36.40;99.90;;;;;;5040308;28;20415;-73
2023/07/15 08:32:17;;;;;;;6.80;2.20;;;36.10;99.90;;;;;;5040936;28;20418;-74
2023/07/15 08:34:59;;;;;;;6.40;2.20;;;36.20;99.90;;;;;;5039953;28;20444;-75
2023/07/15 08:37:25;;;;;;;7.43;2.50;;;35.70;99.90;;;;;;5045216;28;20421;-75
2023/07/15 08:39:51;;;;;;;6.10;2.10;;;35.80;99.90;;;;;;5044105;28;20427;-75
2023/07/15 08:42:19;;;;;;;6.57;2.07;;;36.20;99.90;;;;;;5042500;28;20412;-74
2023/07/15 08:44:46;;;;;;;7.15;1.90;;;37.40;99.90;;;;;;5044649;28;20410;-75
2023/07/15 08:47:17;;;;;;;6.95;1.98;;;37.50;99.90;;;;;;5037594;28;20831;-75
2023/07/15 08:49:43;;;;;;;5.80;1.80;;;37.70;99.90;;;;;;5033668;28;20448;-75
2023/07/15 08:52:08;;;;;;;6.95;1.90;;;37.90;99.90;;;;;;5035101;28;20911;-67
2023/07/15 08:54:34;;;;;;;6.60;2.10;;;37.70;99.90;;;;;;5037727;28;20796;-68
2023/07/15 08:57:01;;;;;;;7.00;2.40;;;37.80;99.90;;;;;;5034628;28;20423;-67
2023/07/15 08:59:27;;;;;;;5.55;1.70;;;36.80;99.90;;;;;;5034776;28;20488;-66
2023/07/15 09:01:53;;;;;;;6.50;2.00;;;36.00;99.90;;;;;;5035315;28;20395;-66
2023/07/15 09:04:19;;;;;;;6.90;2.23;;;35.90;99.90;;;;;;5044273;28;20412;-66
2023/07/15 09:06:47;;;;;;;6.00;2.00;;;35.80;99.90;;;;;;5035357;28;20391;-67
2023/07/15 09:09:14;;;;;;;8.40;2.53;;;35.70;99.90;;;;;;5040308;28;20409;-66
2023/07/15 09:11:42;;;;;;;6.50;2.40;;;35.70;99.90;;;;;;5035355;28;20537;-67
2023/07/15 09:14:13;;;;;;;6.70;2.10;;;35.40;99.90;;;;;;5036438;28;20421;-66
2023/07/15 09:16:38;;;;;;;6.00;1.83;;;35.40;99.90;;;;;;5036962;28;20781;-66
2023/07/15 09:19:05;;;;;;;6.97;2.13;;;35.80;99.90;;;;;;5034123;28;20425;-66
2023/07/15 09:21:30;;;;;;;6.13;1.98;;;37.30;99.90;;;;;;5033729;28;20415;-69
2023/07/15 09:24:00;;;;;;;7.28;2.20;;;38.00;99.90;;;;;;5034617;28;20805;-68
2023/07/15 09:26:26;;;;;;;6.30;2.03;;;38.60;99.90;;;;;;5033910;28;20403;-68
2023/07/15 09:28:53;;;;;;;6.18;2.20;;;39.20;99.90;;;;;;5039074;28;20500;-68
2023/07/15 09:31:27;;;;;;;6.72;2.40;;;38.60;99.90;;;;;;5032772;28;20943;-69
2023/07/15 09:34:03;;;;;;;7.28;2.40;;;38.60;99.90;;;;;;5031865;28;20414;-69
2023/07/15 09:36:30;;;;;;;6.00;2.10;;;39.70;99.90;;;;;;5033998;28;20875;-68
2023/07/15 09:39:14;;;;;;;6.40;2.33;;;41.10;99.90;;;;;;5034608;28;20422;-68
2023/07/15 09:41:40;;;;;;;6.05;1.90;;;41.90;99.90;;;;;;5035936;28;20968;-68
2023/07/15 09:44:07;;;;;;;6.90;2.50;;;41.60;99.90;;;;;;5038008;28;20503;-68
2023/07/15 09:46:33;;;;;;;6.40;2.20;;;40.70;99.90;;;;;;5031695;28;20421;-69
2023/07/15 09:48:58;;;;;;;7.32;2.67;;;39.70;99.90;;;;;;5041946;28;20401;-68
2023/07/15 09:51:25;;;;;;;6.25;2.38;;;38.80;99.90;;;;;;5020557;28;20417;-67
2023/07/15 09:53:53;;;;;;;6.40;2.20;;;38.80;99.90;;;;;;5036367;28;20797;-70
2023/07/15 09:56:34;;;;;;;6.63;2.40;;;38.60;99.90;;;;;;5050207;28;20409;-68
2023/07/15 09:59:17;;;;;;;8.40;2.00;;;39.20;99.90;;;;;;5032938;28;20417;-68
2023/07/15 10:01:46;;;;;;;6.80;2.30;;;40.10;99.90;;;;;;5032197;28;20404;-68
2023/07/15 10:04:24;;;;;;;7.13;2.20;;;40.80;99.90;;;;;;5032688;28;20417;-69
2023/07/15 10:06:53;;;;;;;6.10;2.10;;;39.90;99.90;;;;;;5031826;28;22152;-69
2023/07/15 10:09:19;;;;;;;6.55;2.10;;;39.00;99.90;;;;;;5042131;28;20992;-68
2023/07/15 10:11:46;;;;;;;6.57;2.10;;;38.60;99.90;;;;;;5035944;28;20516;-68
2023/07/15 10:14:12;;;;;;;7.70;2.60;;;37.70;99.90;;;;;;5046892;28;20417;-68
2023/07/15 10:16:38;;;;;;;6.72;1.95;;;37.60;99.90;;;;;;5035631;28;20974;-68
2023/07/15 10:19:04;;;;;;;6.50;2.33;;;37.80;99.90;;;;;;5039517;28;20439;-67
2023/07/15 10:21:30;;;;;;;7.10;2.30;;;36.80;99.90;;;;;;5035357;28;20917;-68
2023/07/15 10:24:12;;;;;;;6.80;2.00;;;37.10;99.90;;;;;;5051247;28;20407;-68
2023/07/15 10:26:48;;;;;;;8.70;2.00;;;38.40;99.90;;;;;;5038567;28;20410;-68
2023/07/15 10:29:14;;;;;;;6.72;2.50;;;39.40;99.90;;;;;;5042623;28;22345;-68
2023/07/15 10:31:39;;;;;;;6.60;2.50;;;39.20;99.90;;;;;;5042379;28;20424;-69
2023/07/15 10:34:05;;;;;;;7.13;2.40;;;39.70;99.90;;;;;;5046491;28;20501;-68
2023/07/15 10:36:38;;;;;;;6.50;2.20;;;40.10;99.90;;;;;;5038655;28;20879;-68
2023/07/15 10:39:11;;;;;;;11.23;2.43;;;40.00;99.90;;;;;;5028472;28;20418;-68
2023/07/15 10:41:48;;;;;;;6.30;2.30;;;39.50;99.90;;;;;;5040108;28;20444;-68
2023/07/15 10:44:24;;;;;;;6.38;2.35;;;39.60;99.90;;;;;;5036093;28;20410;-68
2023/07/15 10:46:58;;;;;;;7.35;2.70;;;39.50;99.90;;;;;;5036785;28;20435;-68
2023/07/15 10:49:24;;;;;;;6.40;2.08;;;38.60;99.90;;;;;;5031003;28;20399;-68
2023/07/15 10:51:52;;;;;;;6.70;2.00;;;37.80;99.90;;;;;;5035907;28;20964;-68
2023/07/15 10:54:26;;;;;;;8.25;1.88;;;37.30;99.90;;;;;;5016058;28;20849;-67
2023/07/15 10:56:53;;;;;;;7.00;2.35;;;37.20;99.90;;;;;;5028839;28;20470;-67
2023/07/15 10:59:20;;;;;;;7.68;2.10;;;37.10;99.90;;;;;;5027800;28;20419;-67
2023/07/15 11:01:45;;;;;;;7.25;2.70;;;37.10;99.90;;;;;;5035264;28;20462;-68
2023/07/15 11:04:11;;;;;;;6.72;2.00;;;37.80;99.90;;;;;;5034526;28;22300;-68
2023/07/15 11:06:38;;;;;;;5.75;1.77;;;38.30;99.90;;;;;;5028033;28;20526;-68
2023/07/15 11:09:13;;;;;;;6.90;1.90;;;38.40;99.90;;;;;;5039871;28;20395;-68
2023/07/15 11:11:39;;;;;;;6.03;1.80;;;38.40;99.90;;;;;;5028217;28;20431;-69
2023/07/15 11:14:04;;;;;;;7.20;2.30;;;37.90;99.90;;;;;;5036404;28;20421;-68
2023/07/15 11:16:30;;;;;;;6.38;2.10;;;37.90;99.90;;;;;;5045524;28;20405;-68
2023/07/15 11:18:57;;;;;;;7.30;2.43;;;37.90;99.90;;;;;;5037625;28;20429;-68
2023/07/15 11:21:23;;;;;;;8.70;2.67;;;38.00;99.90;;;;;;5039400;28;20418;-69
2023/07/15 11:23:48;;;;;;;6.50;2.30;;;37.70;99.90;;;;;;5042623;28;20798;-69
2023/07/15 11:26:14;;;;;;;6.77;2.60;;;36.60;99.90;;;;;;5038997;28;20460;-69
2023/07/15 11:28:48;;;;;;;10.50;2.90;;;35.60;99.90;;;;;;5036337;28;20433;-69
2023/07/15 11:31:13;;;;;;;6.27;2.33;;;35.10;99.90;;;;;;5037916;28;20416;-68
2023/07/15 11:33:39;;;;;;;7.80;2.53;;;35.30;99.90;;;;;;5032304;28;20430;-68
2023/07/15 11:36:04;;;;;;;8.43;2.80;;;35.40;99.90;;;;;;5041431;28;20400;-68
2023/07/15 11:38:33;;;;;;;14.57;2.50;;;35.70;99.90;;;;;;5043321;28;20829;-68
2023/07/15 11:40:59;;;;;;;7.60;2.70;;;35.80;99.90;;;;;;5031725;28;20426;-68
2023/07/15 11:43:30;;;;;;;7.00;2.72;;;35.70;99.90;;;;;;5035058;28;20411;-68
2023/07/15 11:46:00;;;;;;;6.60;2.40;;;35.70;99.90;;;;;;5026589;28;20422;-67
2023/07/15 11:48:33;;;;;;;7.25;2.83;;;35.90;99.90;;;;;;5029008;28;20805;-72
2023/07/15 11:51:09;;;;;;;7.53;2.80;;;36.20;99.90;;;;;;5035399;28;20902;-68
2023/07/15 11:53:36;;;;;;;7.65;2.70;;;36.40;99.90;;;;;;5035768;28;20536;-69
2023/07/15 11:56:03;;;;;;;6.40;2.50;;;36.60;99.90;;;;;;5034791;28;20499;-69
2023/07/15 11:58:40;;;;;;;7.45;2.35;;;36.70;99.90;;;;;;5053864;28;20812;-69
2023/07/15 12:01:10;;;;;;;8.50;2.70;;;36.70;99.90;;;;;;5034875;28;20433;-68
2023/07/15 12:03:35;;;;;;;8.93;3.40;;;36.70;99.90;;;;;;5044236;28;20510;-70
2023/07/15 12:06:01;;;;;;;7.10;2.50;;;36.30;99.90;;;;;;5034698;28;20937;-68
2023/07/15 12:08:26;;;;;;;7.27;3.10;;;35.60;99.90;;;;;;5034122;28;20430;-68
2023/07/15 12:10:56;;;;;;;6.75;2.70;;;35.10;99.90;;;;;;5034831;28;20490;-68
2023/07/15 12:13:21;;;;;;;7.18;3.10;;;35.00;99.90;;;;;;5038115;28;21028;-68
2023/07/15 12:15:47;;;;;;;9.50;3.80;;;34.60;99.90;;;;;;5039978;28;20404;-67
2023/07/15 12:18:13;;;;;;;7.03;2.75;;;34.40;99.90;;;;;;5037052;28;20418;-67
2023/07/15 12:20:39;;;;;;;7.05;3.20;;;34.30;99.90;;;;;;5047037;28;20413;-68
2023/07/15 12:23:04;;;;;;;7.40;3.05;;;34.50;99.90;;;;;;5034983;28;20787;-68
2023/07/15 12:25:30;;;;;;;9.37;3.30;;;34.80;99.90;;;;;;5024463;28;20415;-68
2023/07/15 12:27:56;;;;;;;7.30;2.67;;;34.90;99.90;;;;;;5038094;28;20980;-67
2023/07/15 12:30:21;;;;;;;8.27;3.20;;;35.40;99.90;;;;;;5039235;28;20413;-68
2023/07/15 12:32:47;;;;;;;8.52;3.20;;;35.80;99.90;;;;;;5041847;28;20413;-68
2023/07/15 12:35:12;;;;;;;8.30;3.07;;;36.20;99.90;;;;;;5044553;28;20925;-68
2023/07/15 12:37:38;;;;;;;7.70;3.00;;;36.60;99.90;;;;;;5035133;28;20399;-68
2023/07/15 12:40:08;;;;;;;6.47;2.50;;;37.10;99.90;;;;;;5037644;28;20417;-69
2023/07/15 12:42:35;;;;;;;8.90;3.20;;;37.00;99.90;;;;;;5039544;28;20484;-69
2023/07/15 12:45:01;;;;;;;7.30;2.90;;;36.90;99.90;;;;;;5038786;28;20490;-69
2023/07/15 12:47:26;;;;;;;9.00;3.30;;;36.90;99.90;;;;;;5045448;28;20474;-71